Whitestown, Indiana
Current Conditions -  °F | °C
As of 11:15 AM on Sunday 25 Jan 2015 (Local Time) from KTYQ Reporting Station
Haze Haze  
Wind Chill: 29°   Ceiling: 8000
Heat Index: 35°   Visibility: 4mi
Dew Point: 32°   Wind: 7mph
Humidity: 89%   Direction: 100°E
Pressure: 29.67"   Gusts: NA
Location:  40°N, 86.35°W
Report Text: KTYQ 251615Z AUTO 10006KT 4SM BR OVC080 02/00 A2967 RMK AO2 T00170000
Loading
Personal Weather Stations






























Interactive Weather Map New forecast layout! Learn more

10-Day Weather Forecast

Advertisements
Track Severe Weather on mobile